Flasher, North Dakota
Current Conditions -  °F | °C
As of 7:35 AM on Thursday 30 Oct 2014 (Local Time) from KY19 Reporting Station
Haze Haze  
Wind Chill: 23°   Ceiling: Unl
Heat Index: 32°   Visibility: 6mi
Dew Point: 28°   Wind: 12mph
Humidity: 87%   Direction: 340°NNW
Pressure: 30.25"   Gusts: NA
Location:  46.46°N, 101.23°W
Report Text: KY19 301335Z AUTO 34010KT 6SM BR CLR 00/M02 A3025 RMK AO2
Loading
Personal Weather Stations






























Interactive Weather Map
Tropical Storm Tracking
New forecast layout! Learn more

10-Day Weather Forecast

Advertisements
Track Severe Weather on mobile